sensor_id;sensor_type;location;lat;lon;timestamp;pressure;altitude;pressure_sealevel;temperature;humidity
42887;BME280;29032;56.028;92.904;2023-06-26T00:06:27;99162.75;;;14.93;57.28
42887;BME280;29032;56.028;92.904;2023-06-26T00:11:29;99164.41;;;14.96;57.04
42887;BME280;29032;56.028;92.904;2023-06-26T00:16:50;99157.16;;;15.16;57.22
42887;BME280;29032;56.028;92.904;2023-06-26T00:21:52;99161.25;;;15.07;57.21
42887;BME280;29032;56.028;92.904;2023-06-26T00:26:54;99160.31;;;15.12;57.38
42887;BME280;29032;56.028;92.904;2023-06-26T00:31:59;99155.84;;;15.25;57.05
42887;BME280;29032;56.028;92.904;2023-06-26T00:37:01;99159.00;;;15.29;56.69
42887;BME280;29032;56.028;92.904;2023-06-26T00:42:06;99154.16;;;15.37;56.27
42887;BME280;29032;56.028;92.904;2023-06-26T00:52:49;99147.03;;;15.51;56.78
42887;BME280;29032;56.028;92.904;2023-06-26T00:57:51;99154.84;;;15.60;57.21
42887;BME280;29032;56.028;92.904;2023-06-26T01:03:13;99167.88;;;15.81;56.73
42887;BME280;29032;56.028;92.904;2023-06-26T01:08:15;99167.16;;;15.72;56.73
42887;BME280;29032;56.028;92.904;2023-06-26T01:13:20;99163.78;;;15.82;56.67
42887;BME280;29032;56.028;92.904;2023-06-26T01:18:25;99165.56;;;16.02;55.52
42887;BME280;29032;56.028;92.904;2023-06-26T01:28:56;99171.47;;;16.21;55.76
42887;BME280;29032;56.028;92.904;2023-06-26T01:34:01;99176.66;;;16.25;54.51
42887;BME280;29032;56.028;92.904;2023-06-26T01:39:40;99174.56;;;16.41;54.64
42887;BME280;29032;56.028;92.904;2023-06-26T01:44:45;99184.50;;;16.34;53.98
42887;BME280;29032;56.028;92.904;2023-06-26T01:49:51;99182.97;;;16.33;54.18
42887;BME280;29032;56.028;92.904;2023-06-26T01:54:58;99192.34;;;16.28;53.96
42887;BME280;29032;56.028;92.904;2023-06-26T02:00:07;99194.59;;;16.29;54.14
42887;BME280;29032;56.028;92.904;2023-06-26T02:05:18;99195.69;;;16.26;53.61
42887;BME280;29032;56.028;92.904;2023-06-26T02:10:20;99195.69;;;16.26;52.99
42887;BME280;29032;56.028;92.904;2023-06-26T02:15:24;99182.97;;;16.33;53.27
42887;BME280;29032;56.028;92.904;2023-06-26T02:20:26;99191.75;;;16.37;53.39
42887;BME280;29032;56.028;92.904;2023-06-26T02:25:28;99180.34;;;16.43;52.29
42887;BME280;29032;56.028;92.904;2023-06-26T02:30:31;99187.94;;;16.50;50.55
42887;BME280;29032;56.028;92.904;2023-06-26T02:35:53;99184.88;;;16.63;50.55
42887;BME280;29032;56.028;92.904;2023-06-26T02:40:55;99184.34;;;16.57;51.61
42887;BME280;29032;56.028;92.904;2023-06-26T02:45:59;99171.78;;;16.73;51.37
42887;BME280;29032;56.028;92.904;2023-06-26T02:51:01;99168.53;;;16.84;50.71
42887;BME280;29032;56.028;92.904;2023-06-26T02:56:06;99164.34;;;16.93;49.34
42887;BME280;29032;56.028;92.904;2023-06-26T03:01:10;99172.88;;;17.03;49.26
42887;BME280;29032;56.028;92.904;2023-06-26T03:06:14;99158.97;;;17.13;49.13
42887;BME280;29032;56.028;92.904;2023-06-26T03:11:16;99164.84;;;17.24;48.99
42887;BME280;29032;56.028;92.904;2023-06-26T03:16:21;99164.53;;;17.37;47.91
42887;BME280;29032;56.028;92.904;2023-06-26T03:21:23;99155.50;;;17.47;47.85
42887;BME280;29032;56.028;92.904;2023-06-26T03:26:43;99154.59;;;17.79;48.46
42887;BME280;29032;56.028;92.904;2023-06-26T03:31:47;99153.03;;;17.85;45.98
42887;BME280;29032;56.028;92.904;2023-06-26T03:42:10;99163.28;;;17.90;43.96
42887;BME280;29032;56.028;92.904;2023-06-26T03:47:13;99152.53;;;17.97;45.37
42887;BME280;29032;56.028;92.904;2023-06-26T03:52:15;99149.47;;;18.02;46.21
42887;BME280;29032;56.028;92.904;2023-06-26T03:57:17;99144.53;;;18.10;44.08
42887;BME280;29032;56.028;92.904;2023-06-26T04:02:23;99150.78;;;18.18;43.33
42887;BME280;29032;56.028;92.904;2023-06-26T04:07:26;99136.47;;;18.24;43.21
42887;BME280;29032;56.028;92.904;2023-06-26T04:12:28;99127.66;;;18.37;43.79
42887;BME280;29032;56.028;92.904;2023-06-26T04:17:31;99132.75;;;18.48;42.04
42887;BME280;29032;56.028;92.904;2023-06-26T04:22:33;99128.63;;;18.49;42.24
42887;BME280;29032;56.028;92.904;2023-06-26T04:27:35;99121.25;;;18.54;42.51
42887;BME280;29032;56.028;92.904;2023-06-26T04:32:39;99123.59;;;18.75;41.80
42887;BME280;29032;56.028;92.904;2023-06-26T04:37:41;99124.47;;;18.78;42.00
42887;BME280;29032;56.028;92.904;2023-06-26T04:42:43;99130.25;;;18.80;39.09
42887;BME280;29032;56.028;92.904;2023-06-26T04:47:46;99119.59;;;18.78;40.01
42887;BME280;29032;56.028;92.904;2023-06-26T04:53:07;99115.84;;;19.02;40.75
42887;BME280;29032;56.028;92.904;2023-06-26T04:58:09;99114.94;;;19.00;40.36
42887;BME280;29032;56.028;92.904;2023-06-26T05:03:14;99105.06;;;19.18;39.84
42887;BME280;29032;56.028;92.904;2023-06-26T05:08:17;99103.47;;;19.25;38.67
42887;BME280;29032;56.028;92.904;2023-06-26T05:13:20;99103.59;;;19.17;39.37
42887;BME280;29032;56.028;92.904;2023-06-26T05:18:42;99090.41;;;19.20;39.73
42887;BME280;29032;56.028;92.904;2023-06-26T05:23:45;99096.63;;;19.28;39.17
42887;BME280;29032;56.028;92.904;2023-06-26T05:28:57;99087.78;;;19.41;39.31
42887;BME280;29032;56.028;92.904;2023-06-26T05:34:03;99088.25;;;19.76;39.65
42887;BME280;29032;56.028;92.904;2023-06-26T05:44:25;99088.09;;;19.94;37.90
42887;BME280;29032;56.028;92.904;2023-06-26T05:49:29;99078.44;;;19.97;37.50
42887;BME280;29032;56.028;92.904;2023-06-26T05:54:50;99085.38;;;20.05;37.83
42887;BME280;29032;56.028;92.904;2023-06-26T05:59:53;99092.44;;;20.26;37.56
42887;BME280;29032;56.028;92.904;2023-06-26T06:04:56;99075.59;;;20.16;38.63
42887;BME280;29032;56.028;92.904;2023-06-26T06:09:58;99085.69;;;20.09;37.40
42887;BME280;29032;56.028;92.904;2023-06-26T06:15:19;99077.34;;;20.31;38.71
42887;BME280;29032;56.028;92.904;2023-06-26T06:20:22;99085.94;;;20.33;38.39
42887;BME280;29032;56.028;92.904;2023-06-26T06:25:24;99091.56;;;20.23;40.17
42887;BME280;29032;56.028;92.904;2023-06-26T06:30:45;99086.16;;;19.96;40.82
42887;BME280;29032;56.028;92.904;2023-06-26T06:35:48;99093.13;;;19.95;40.18
42887;BME280;29032;56.028;92.904;2023-06-26T06:40:51;99073.53;;;19.97;39.68
42887;BME280;29032;56.028;92.904;2023-06-26T06:45:53;99080.91;;;20.22;40.27
42887;BME280;29032;56.028;92.904;2023-06-26T06:50:57;99070.44;;;20.53;38.62
42887;BME280;29032;56.028;92.904;2023-06-26T06:55:59;99068.97;;;20.52;38.67
42887;BME280;29032;56.028;92.904;2023-06-26T07:01:01;99087.72;;;20.38;38.34
42887;BME280;29032;56.028;92.904;2023-06-26T07:06:04;99095.13;;;20.24;38.52
42887;BME280;29032;56.028;92.904;2023-06-26T07:11:06;99090.84;;;20.13;38.29
42887;BME280;29032;56.028;92.904;2023-06-26T07:16:08;99084.34;;;20.10;37.34
42887;BME280;29032;56.028;92.904;2023-06-26T07:21:12;99082.09;;;20.19;37.38
42887;BME280;29032;56.028;92.904;2023-06-26T07:26:14;99081.19;;;20.26;36.58
42887;BME280;29032;56.028;92.904;2023-06-26T07:31:16;99071.97;;;20.35;36.92
42887;BME280;29032;56.028;92.904;2023-06-26T07:36:20;99075.63;;;20.57;37.38
42887;BME280;29032;56.028;92.904;2023-06-26T07:47:01;99091.69;;;20.76;36.53
42887;BME280;29032;56.028;92.904;2023-06-26T07:52:05;99096.00;;;20.77;35.75
42887;BME280;29032;56.028;92.904;2023-06-26T07:57:08;99071.72;;;20.62;36.43
42887;BME280;29032;56.028;92.904;2023-06-26T08:02:28;99069.66;;;20.62;36.93
42887;BME280;29032;56.028;92.904;2023-06-26T08:12:53;99053.38;;;21.04;34.85
42887;BME280;29032;56.028;92.904;2023-06-26T08:17:55;99057.34;;;21.20;34.28
42887;BME280;29032;56.028;92.904;2023-06-26T08:22:58;99061.75;;;21.44;34.87
42887;BME280;29032;56.028;92.904;2023-06-26T08:28:18;99051.25;;;21.57;34.57
42887;BME280;29032;56.028;92.904;2023-06-26T08:33:20;99063.84;;;21.77;34.39
42887;BME280;29032;56.028;92.904;2023-06-26T08:38:43;99062.44;;;21.88;34.18
42887;BME280;29032;56.028;92.904;2023-06-26T08:43:45;99058.31;;;22.12;33.89
42887;BME280;29032;56.028;92.904;2023-06-26T08:48:49;99054.41;;;22.41;33.96
42887;BME280;29032;56.028;92.904;2023-06-26T08:59:18;99063.06;;;21.65;34.15
42887;BME280;29032;56.028;92.904;2023-06-26T09:04:21;99054.41;;;21.51;34.38
42887;BME280;29032;56.028;92.904;2023-06-26T09:09:25;99045.09;;;21.48;33.84
42887;BME280;29032;56.028;92.904;2023-06-26T09:14:27;99040.34;;;21.63;34.57
42887;BME280;29032;56.028;92.904;2023-06-26T09:19:30;99024.34;;;21.89;33.64
42887;BME280;29032;56.028;92.904;2023-06-26T09:24:34;99055.69;;;21.93;32.55
42887;BME280;29032;56.028;92.904;2023-06-26T09:29:36;99045.38;;;21.64;32.29
42887;BME280;29032;56.028;92.904;2023-06-26T09:34:41;99044.88;;;21.56;32.74
42887;BME280;29032;56.028;92.904;2023-06-26T09:39:46;99041.91;;;21.54;33.49
42887;BME280;29032;56.028;92.904;2023-06-26T09:44:48;99036.78;;;21.62;33.40
42887;BME280;29032;56.028;92.904;2023-06-26T09:55:42;99039.75;;;21.76;32.64
42887;BME280;29032;56.028;92.904;2023-06-26T10:00:44;99041.47;;;21.69;32.71
42887;BME280;29032;56.028;92.904;2023-06-26T10:05:47;99044.38;;;21.60;33.25
42887;BME280;29032;56.028;92.904;2023-06-26T10:16:13;99046.47;;;21.59;34.43
42887;BME280;29032;56.028;92.904;2023-06-26T10:21:20;99041.81;;;21.97;33.21
42887;BME280;29032;56.028;92.904;2023-06-26T10:26:26;99045.31;;;22.30;32.60
42887;BME280;29032;56.028;92.904;2023-06-26T10:31:30;99036.59;;;22.50;33.17
42887;BME280;29032;56.028;92.904;2023-06-26T10:36:35;99036.47;;;22.60;33.05
42887;BME280;29032;56.028;92.904;2023-06-26T10:41:40;99038.31;;;22.55;32.90
42887;BME280;29032;56.028;92.904;2023-06-26T10:46:51;99037.94;;;22.49;32.60
42887;BME280;29032;56.028;92.904;2023-06-26T10:51:54;99049.84;;;22.12;32.85
42887;BME280;29032;56.028;92.904;2023-06-26T10:57:16;99051.41;;;22.03;33.61
42887;BME280;29032;56.028;92.904;2023-06-26T11:02:26;99048.34;;;21.66;32.83
42887;BME280;29032;56.028;92.904;2023-06-26T11:07:28;99067.19;;;21.52;33.58
42887;BME280;29032;56.028;92.904;2023-06-26T11:12:41;99072.91;;;21.42;35.47
42887;BME280;29032;56.028;92.904;2023-06-26T11:23:23;99094.09;;;20.70;36.24
42887;BME280;29032;56.028;92.904;2023-06-26T11:28:27;99081.41;;;20.49;36.59
42887;BME280;29032;56.028;92.904;2023-06-26T11:33:29;99083.41;;;20.37;37.49
42887;BME280;29032;56.028;92.904;2023-06-26T11:38:37;99092.78;;;20.30;38.49
42887;BME280;29032;56.028;92.904;2023-06-26T11:44:01;99091.56;;;20.33;38.91
42887;BME280;29032;56.028;92.904;2023-06-26T11:49:22;99089.38;;;20.22;39.74
42887;BME280;29032;56.028;92.904;2023-06-26T11:54:43;99094.38;;;20.43;39.55
42887;BME280;29032;56.028;92.904;2023-06-26T11:59:49;99094.53;;;20.35;39.17
42887;BME280;29032;56.028;92.904;2023-06-26T12:05:10;99095.13;;;20.24;39.94
42887;BME280;29032;56.028;92.904;2023-06-26T12:10:14;99098.13;;;20.16;40.29
42887;BME280;29032;56.028;92.904;2023-06-26T12:15:18;99100.06;;;20.04;40.36
42887;BME280;29032;56.028;92.904;2023-06-26T12:20:22;99101.13;;;19.89;40.81
42887;BME280;29032;56.028;92.904;2023-06-26T12:25:24;99104.97;;;19.84;41.38
42887;BME280;29032;56.028;92.904;2023-06-26T12:30:27;99093.44;;;19.80;41.78
42887;BME280;29032;56.028;92.904;2023-06-26T12:35:33;99094.19;;;19.80;41.91
42887;BME280;29032;56.028;92.904;2023-06-26T12:40:35;99088.09;;;19.65;41.82
42887;BME280;29032;56.028;92.904;2023-06-26T12:45:41;99088.69;;;19.73;41.84
42887;BME280;29032;56.028;92.904;2023-06-26T12:51:08;99094.47;;;19.75;42.00
42887;BME280;29032;56.028;92.904;2023-06-26T13:01:32;99088.09;;;19.65;42.72
42887;BME280;29032;56.028;92.904;2023-06-26T13:06:36;99089.28;;;19.62;43.27
42887;BME280;29032;56.028;92.904;2023-06-26T13:11:38;99103.06;;;19.48;45.51
42887;BME280;29032;56.028;92.904;2023-06-26T13:22:02;99104.66;;;19.41;45.11
42887;BME280;29032;56.028;92.904;2023-06-26T13:27:22;99109.53;;;19.41;46.00
42887;BME280;29032;56.028;92.904;2023-06-26T13:32:26;99123.00;;;19.42;44.88
42887;BME280;29032;56.028;92.904;2023-06-26T13:37:28;99118.72;;;19.32;45.82
42887;BME280;29032;56.028;92.904;2023-06-26T13:42:30;99122.56;;;19.26;46.47
42887;BME280;29032;56.028;92.904;2023-06-26T13:52:54;99124.03;;;19.27;44.62
42887;BME280;29032;56.028;92.904;2023-06-26T13:58:01;99130.84;;;19.24;44.65
42887;BME280;29032;56.028;92.904;2023-06-26T14:08:25;99130.09;;;19.24;45.81
42887;BME280;29032;56.028;92.904;2023-06-26T14:13:27;99125.97;;;19.25;45.72
42887;BME280;29032;56.028;92.904;2023-06-26T14:18:48;99145.25;;;19.38;45.55
42887;BME280;29032;56.028;92.904;2023-06-26T14:23:50;99140.13;;;19.08;46.38
42887;BME280;29032;56.028;92.904;2023-06-26T14:28:52;99136.41;;;19.05;45.34
42887;BME280;29032;56.028;92.904;2023-06-26T14:33:56;99138.81;;;19.09;45.31
42887;BME280;29032;56.028;92.904;2023-06-26T14:38:58;99156.38;;;18.99;45.49
42887;BME280;29032;56.028;92.904;2023-06-26T14:44:00;99150.28;;;18.93;46.22
42887;BME280;29032;56.028;92.904;2023-06-26T14:49:22;99156.88;;;19.15;45.73
42887;BME280;29032;56.028;92.904;2023-06-26T14:54:24;99149.53;;;18.93;46.54
42887;BME280;29032;56.028;92.904;2023-06-26T15:04:47;99147.19;;;18.89;47.01
42887;BME280;29032;56.028;92.904;2023-06-26T15:10:08;99150.59;;;18.97;47.04
42887;BME280;29032;56.028;92.904;2023-06-26T15:15:10;99158.97;;;18.78;47.08
42887;BME280;29032;56.028;92.904;2023-06-26T15:20:14;99161.63;;;18.76;47.60
42887;BME280;29032;56.028;92.904;2023-06-26T15:25:16;99153.41;;;18.61;48.61
42887;BME280;29032;56.028;92.904;2023-06-26T15:30:18;99158.19;;;18.51;48.13
42887;BME280;29032;56.028;92.904;2023-06-26T15:35:22;99162.03;;;18.45;48.32
42887;BME280;29032;56.028;92.904;2023-06-26T15:40:24;99158.41;;;18.35;48.35
42887;BME280;29032;56.028;92.904;2023-06-26T15:45:26;99159.09;;;18.26;48.72
42887;BME280;29032;56.028;92.904;2023-06-26T15:50:29;99158.63;;;18.20;50.65
42887;BME280;29032;56.028;92.904;2023-06-26T15:55:31;99165.06;;;18.13;49.68
42887;BME280;29032;56.028;92.904;2023-06-26T16:00:52;99161.91;;;18.26;49.58
42887;BME280;29032;56.028;92.904;2023-06-26T16:05:55;99152.34;;;18.12;50.34
42887;BME280;29032;56.028;92.904;2023-06-26T16:10:57;99148.06;;;18.11;49.99
42887;BME280;29032;56.028;92.904;2023-06-26T16:16:00;99157.63;;;18.08;49.76
42887;BME280;29032;56.028;92.904;2023-06-26T16:21:04;99162.59;;;18.17;49.87
42887;BME280;29032;56.028;92.904;2023-06-26T16:26:06;99158.13;;;18.14;50.82
42887;BME280;29032;56.028;92.904;2023-06-26T16:31:08;99145.25;;;18.11;50.62
42887;BME280;29032;56.028;92.904;2023-06-26T16:36:11;99144.78;;;17.87;51.46
42887;BME280;29032;56.028;92.904;2023-06-26T16:46:34;99141.31;;;17.62;51.57
42887;BME280;29032;56.028;92.904;2023-06-26T16:51:55;99138.84;;;17.83;51.09
42887;BME280;29032;56.028;92.904;2023-06-26T16:56:57;99144.09;;;17.45;50.94
42887;BME280;29032;56.028;92.904;2023-06-26T17:01:59;99164.31;;;17.43;50.87
42887;BME280;29032;56.028;92.904;2023-06-26T17:07:03;99169.69;;;17.49;51.33
42887;BME280;29032;56.028;92.904;2023-06-26T17:12:06;99175.44;;;17.33;53.15
42887;BME280;29032;56.028;92.904;2023-06-26T17:17:08;99179.13;;;17.19;54.96
42887;BME280;29032;56.028;92.904;2023-06-26T17:22:12;99181.84;;;17.01;57.13
42887;BME280;29032;56.028;92.904;2023-06-26T17:27:14;99172.69;;;16.76;57.77
42887;BME280;29032;56.028;92.904;2023-06-26T17:32:16;99152.22;;;16.58;59.70
42887;BME280;29032;56.028;92.904;2023-06-26T17:37:20;99165.91;;;16.46;60.64
42887;BME280;29032;56.028;92.904;2023-06-26T17:42:22;99157.09;;;16.17;62.11
42887;BME280;29032;56.028;92.904;2023-06-26T17:47:25;99137.88;;;16.21;62.56
42887;BME280;29032;56.028;92.904;2023-06-26T17:52:28;99129.22;;;16.35;63.02
42887;BME280;29032;56.028;92.904;2023-06-26T17:57:30;99125.44;;;16.40;63.05
42887;BME280;29032;56.028;92.904;2023-06-26T18:02:32;99114.25;;;16.40;61.86
42887;BME280;29032;56.028;92.904;2023-06-26T18:07:36;99111.28;;;16.38;62.72
42887;BME280;29032;56.028;92.904;2023-06-26T18:12:38;99111.63;;;16.09;62.99
42887;BME280;29032;56.028;92.904;2023-06-26T18:17:40;99121.19;;;15.91;64.03
42887;BME280;29032;56.028;92.904;2023-06-26T18:22:43;99118.78;;;15.95;64.22
42887;BME280;29032;56.028;92.904;2023-06-26T18:27:45;99114.50;;;15.94;63.76
42887;BME280;29032;56.028;92.904;2023-06-26T18:32:48;99112.25;;;15.92;63.81
42887;BME280;29032;56.028;92.904;2023-06-26T18:37:51;99104.41;;;15.91;64.36
42887;BME280;29032;56.028;92.904;2023-06-26T18:43:12;99103.13;;;15.84;64.43
42887;BME280;29032;56.028;92.904;2023-06-26T18:48:14;99097.00;;;15.86;64.34
42887;BME280;29032;56.028;92.904;2023-06-26T18:53:18;99099.06;;;15.85;64.52
42887;BME280;29032;56.028;92.904;2023-06-26T19:03:40;99095.13;;;15.81;65.16
42887;BME280;29032;56.028;92.904;2023-06-26T19:08:44;99093.22;;;15.91;65.21
42887;BME280;29032;56.028;92.904;2023-06-26T19:13:46;99098.47;;;15.87;63.83
42887;BME280;29032;56.028;92.904;2023-06-26T19:18:48;99093.97;;;15.91;63.81
42887;BME280;29032;56.028;92.904;2023-06-26T19:23:52;99098.44;;;15.94;64.47
42887;BME280;29032;56.028;92.904;2023-06-26T19:28:54;99095.69;;;15.87;64.01
42887;BME280;29032;56.028;92.904;2023-06-26T19:33:56;99095.91;;;15.73;64.54
42887;BME280;29032;56.028;92.904;2023-06-26T19:38:59;99091.81;;;15.74;64.35
42887;BME280;29032;56.028;92.904;2023-06-26T19:44:01;99098.13;;;15.67;64.21
42887;BME280;29032;56.028;92.904;2023-06-26T19:49:04;99096.66;;;15.66;64.43
42887;BME280;29032;56.028;92.904;2023-06-26T19:54:07;99083.41;;;15.67;63.82
42887;BME280;29032;56.028;92.904;2023-06-26T19:59:09;99080.28;;;15.55;63.61
42887;BME280;29032;56.028;92.904;2023-06-26T20:04:11;99082.53;;;15.49;63.91
42887;BME280;29032;56.028;92.904;2023-06-26T20:09:33;99086.22;;;15.67;63.31
42887;BME280;29032;56.028;92.904;2023-06-26T20:14:54;99084.41;;;15.46;63.11
42887;BME280;29032;56.028;92.904;2023-06-26T20:19:56;99083.28;;;15.42;63.36
42887;BME280;29032;56.028;92.904;2023-06-26T20:24:59;99084.06;;;15.35;63.47
42887;BME280;29032;56.028;92.904;2023-06-26T20:30:01;99090.44;;;15.12;63.08
42887;BME280;29032;56.028;92.904;2023-06-26T20:35:22;99090.63;;;15.22;62.86
42887;BME280;29032;56.028;92.904;2023-06-26T20:40:26;99097.16;;;15.09;63.91
42887;BME280;29032;56.028;92.904;2023-06-26T20:45:28;99098.81;;;15.12;63.44
42887;BME280;29032;56.028;92.904;2023-06-26T20:50:31;99094.91;;;15.15;63.30
42887;BME280;29032;56.028;92.904;2023-06-26T20:55:35;99099.75;;;15.23;63.05
42887;BME280;29032;56.028;92.904;2023-06-26T21:00:37;99089.31;;;15.15;63.11
42887;BME280;29032;56.028;92.904;2023-06-26T21:05:57;99091.91;;;15.29;61.37
42887;BME280;29032;56.028;92.904;2023-06-26T21:11:01;99083.00;;;14.92;62.73
42887;BME280;29032;56.028;92.904;2023-06-26T21:16:03;99092.88;;;14.78;63.42
42887;BME280;29032;56.028;92.904;2023-06-26T21:26:27;99079.28;;;14.97;62.47
42887;BME280;29032;56.028;92.904;2023-06-26T21:31:29;99086.34;;;14.98;62.30
42887;BME280;29032;56.028;92.904;2023-06-26T21:36:31;99088.22;;;15.03;62.57
42887;BME280;29032;56.028;92.904;2023-06-26T21:41:35;99085.97;;;15.09;61.96
42887;BME280;29032;56.028;92.904;2023-06-26T21:46:55;99088.38;;;15.20;61.68
42887;BME280;29032;56.028;92.904;2023-06-26T21:51:57;99080.97;;;15.00;62.62
42887;BME280;29032;56.028;92.904;2023-06-26T21:57:01;99079.47;;;14.99;62.77
42887;BME280;29032;56.028;92.904;2023-06-26T22:02:03;99077.41;;;14.92;62.30
42887;BME280;29032;56.028;92.904;2023-06-26T22:12:27;99074.81;;;14.94;61.77
42887;BME280;29032;56.028;92.904;2023-06-26T22:17:29;99076.50;;;14.89;61.64
42887;BME280;29032;56.028;92.904;2023-06-26T22:22:31;99071.66;;;14.75;61.25
42887;BME280;29032;56.028;92.904;2023-06-26T22:27:35;99079.28;;;14.74;61.33
42887;BME280;29032;56.028;92.904;2023-06-26T22:38:16;99072.59;;;14.62;61.93
42887;BME280;29032;56.028;92.904;2023-06-26T22:43:19;99081.91;;;14.64;61.41
42887;BME280;29032;56.028;92.904;2023-06-26T22:48:21;99071.63;;;14.59;61.50
42887;BME280;29032;56.028;92.904;2023-06-26T22:53:23;99077.56;;;14.56;62.02
42887;BME280;29032;56.028;92.904;2023-06-26T23:03:47;99089.31;;;14.54;62.09
42887;BME280;29032;56.028;92.904;2023-06-26T23:08:49;99081.09;;;14.56;60.83
42887;BME280;29032;56.028;92.904;2023-06-26T23:13:53;99080.00;;;14.59;61.62
42887;BME280;29032;56.028;92.904;2023-06-26T23:18:55;99073.69;;;14.51;61.16
42887;BME280;29032;56.028;92.904;2023-06-26T23:23:57;99066.78;;;14.52;61.43
42887;BME280;29032;56.028;92.904;2023-06-26T23:34:21;99078.53;;;14.58;61.97
42887;BME280;29032;56.028;92.904;2023-06-26T23:39:23;99077.22;;;14.59;61.31
42887;BME280;29032;56.028;92.904;2023-06-26T23:44:27;99090.06;;;14.62;61.57
42887;BME280;29032;56.028;92.904;2023-06-26T23:49:29;99091.38;;;14.61;62.06
42887;BME280;29032;56.028;92.904;2023-06-26T23:54:50;99081.91;;;14.80;61.02
42887;BME280;29032;56.028;92.904;2023-06-26T23:59:53;99091.78;;;14.65;61.40
